createdAt,value
2022-09-12T00:00:15.741Z,40.93
2022-09-12T00:02:42.810Z,40.03
2022-09-12T00:05:09.901Z,36.17
2022-09-12T00:07:36.993Z,33.60
2022-09-12T00:10:04.371Z,37.00
2022-09-12T00:12:31.441Z,33.87
2022-09-12T00:14:58.609Z,37.50
2022-09-12T00:17:25.716Z,35.40
2022-09-12T00:19:53.085Z,36.47
2022-09-12T00:22:20.148Z,34.07
2022-09-12T00:24:47.215Z,38.33
2022-09-12T00:27:14.341Z,38.37
2022-09-12T00:29:41.793Z,39.40
2022-09-12T00:32:08.877Z,41.80
2022-09-12T00:34:37.186Z,35.67
2022-09-12T00:37:04.529Z,40.60
2022-09-12T00:39:31.649Z,43.03
2022-09-12T00:41:58.713Z,45.20
2022-09-12T00:44:25.778Z,61.93
2022-09-12T00:46:52.810Z,83.83
2022-09-12T00:49:19.852Z,98.93
2022-09-12T00:51:55.406Z,118.10
2022-09-12T00:54:26.246Z,103.20
2022-09-12T00:56:54.771Z,123.67
2022-09-12T00:59:24.478Z,146.43
2022-09-12T01:01:52.437Z,125.03
2022-09-12T01:04:21.091Z,92.00
2022-09-12T01:06:48.948Z,104.40
2022-09-12T01:09:20.547Z,104.77
2022-09-12T01:11:48.587Z,82.67
2022-09-12T01:14:16.427Z,99.13
2022-09-12T01:16:45.161Z,120.53
2022-09-12T01:19:31.914Z,54.03
2022-09-12T01:22:02.051Z,41.50
2022-09-12T01:24:35.440Z,45.90
2022-09-12T01:27:05.330Z,47.50
2022-09-12T01:29:38.297Z,39.47
2022-09-12T01:32:11.251Z,55.53
2022-09-12T01:34:44.852Z,110.63
2022-09-12T01:37:11.918Z,58.37
2022-09-12T01:39:46.555Z,75.40
2022-09-12T01:42:32.357Z,101.17
2022-09-12T01:45:11.561Z,108.27
2022-09-12T01:47:47.527Z,57.97
2022-09-12T01:50:17.623Z,72.10
2022-09-12T01:53:04.969Z,96.00
2022-09-12T01:55:35.020Z,70.87
2022-09-12T01:58:07.909Z,21.03
2022-09-12T02:00:36.285Z,35.20
2022-09-12T02:03:10.491Z,157.57
2022-09-12T02:05:40.162Z,78.93
2022-09-12T02:08:08.907Z,311.30
2022-09-12T02:10:41.777Z,126.67
2022-09-12T02:13:17.652Z,175.17
2022-09-12T02:15:48.454Z,110.60
2022-09-12T02:18:18.012Z,191.37
2022-09-12T02:20:48.814Z,298.73
2022-09-12T02:23:28.253Z,112.97
2022-09-12T02:25:57.873Z,119.37
2022-09-12T02:28:33.547Z,277.63
2022-09-12T02:31:19.817Z,197.00
2022-09-12T02:33:52.856Z,100.77
2022-09-12T02:36:39.495Z,122.77
2022-09-12T02:39:06.834Z,50.10
2022-09-12T02:41:34.012Z,37.77
2022-09-12T02:44:01.337Z,23.30
2022-09-12T02:46:39.238Z,19.60
2022-09-12T02:49:08.820Z,19.43
2022-09-12T02:51:36.502Z,22.33
2022-09-12T02:54:06.445Z,27.50
2022-09-12T02:56:33.901Z,28.70
2022-09-12T02:59:03.630Z,49.47
2022-09-12T03:01:42.734Z,49.37
2022-09-12T03:04:18.701Z,47.20
2022-09-12T03:06:45.764Z,68.07
2022-09-12T03:09:16.460Z,49.90
2022-09-12T03:11:43.667Z,72.40
2022-09-12T03:14:32.501Z,121.63
2022-09-12T03:17:08.533Z,115.83
2022-09-12T03:19:52.198Z,43.07
2022-09-12T03:22:22.447Z,144.63
2022-09-12T03:25:12.795Z,101.47
2022-09-12T03:27:41.709Z,197.03
2022-09-12T03:30:10.842Z,262.87
2022-09-12T03:32:48.351Z,340.10
2022-09-12T03:35:20.890Z,120.87
2022-09-12T03:37:50.640Z,145.20
2022-09-12T03:40:17.819Z,284.53
2022-09-12T03:42:44.918Z,119.37
2022-09-12T03:45:12.054Z,302.73
2022-09-12T03:47:39.105Z,214.70
2022-09-12T03:50:06.480Z,192.30
2022-09-12T03:52:34.082Z,99.60
2022-09-12T03:55:01.238Z,153.00
2022-09-12T03:57:28.355Z,114.47
2022-09-12T03:59:55.463Z,151.17
2022-09-12T04:02:22.565Z,135.23
2022-09-12T04:04:49.651Z,94.40
2022-09-12T04:07:17.171Z,183.20
2022-09-12T04:09:44.283Z,118.13
2022-09-12T04:12:11.395Z,153.43
2022-09-12T04:14:38.590Z,110.50
2022-09-12T04:17:05.646Z,124.70
2022-09-12T04:19:32.787Z,147.60
2022-09-12T04:21:59.923Z,111.47
2022-09-12T04:24:27.113Z,177.53
2022-09-12T04:26:54.194Z,188.97
2022-09-12T04:29:21.282Z,153.47
2022-09-12T04:31:48.368Z,143.40
2022-09-12T04:34:15.651Z,95.83
2022-09-12T04:36:42.943Z,187.60
2022-09-12T04:39:11.109Z,231.17
2022-09-12T04:41:39.817Z,161.40
2022-09-12T04:44:09.219Z,199.30
2022-09-12T04:46:38.564Z,118.40
2022-09-12T04:49:05.952Z,90.27
2022-09-12T04:51:35.815Z,190.10
2022-09-12T04:54:07.291Z,165.97
2022-09-12T04:56:37.441Z,112.43
2022-09-12T04:59:04.549Z,197.43
2022-09-12T05:01:31.737Z,156.00
2022-09-12T05:04:00.073Z,85.60
2022-09-12T05:06:31.732Z,96.13
2022-09-12T05:08:59.432Z,272.33
2022-09-12T05:11:41.316Z,179.67
2022-09-12T05:14:15.223Z,153.00
2022-09-12T05:16:45.114Z,161.37
2022-09-12T05:19:14.317Z,139.43
2022-09-12T05:21:41.411Z,232.63
2022-09-12T05:24:08.556Z,130.70
2022-09-12T05:26:35.701Z,199.20
2022-09-12T05:29:04.646Z,119.10
2022-09-12T05:31:31.705Z,130.30
2022-09-12T05:33:58.831Z,81.93
2022-09-12T05:36:27.209Z,86.70
2022-09-12T05:38:54.588Z,42.47
2022-09-12T05:41:25.084Z,73.27
2022-09-12T05:43:56.349Z,54.77
2022-09-12T05:46:25.670Z,35.13
2022-09-12T05:48:56.109Z,37.27
2022-09-12T05:51:28.069Z,50.30
2022-09-12T05:53:58.847Z,58.70
2022-09-12T05:56:27.337Z,39.30
2022-09-12T05:59:02.293Z,39.07
2022-09-12T06:01:30.690Z,55.20
2022-09-12T06:04:00.720Z,44.63
2022-09-12T06:06:28.448Z,27.83
2022-09-12T06:08:58.033Z,24.93
2022-09-12T06:11:26.383Z,29.07
2022-09-12T06:13:53.615Z,39.70
2022-09-12T06:16:21.824Z,40.73
2022-09-12T06:18:53.633Z,117.60
2022-09-12T06:21:21.766Z,67.13
2022-09-12T06:23:49.458Z,76.10
2022-09-12T06:26:17.503Z,51.77
2022-09-12T06:28:45.149Z,33.03
2022-09-12T06:31:13.655Z,24.37
2022-09-12T06:33:41.885Z,88.60
2022-09-12T06:36:12.488Z,56.87
2022-09-12T06:38:40.583Z,46.80
2022-09-12T06:41:08.911Z,28.13
2022-09-12T06:43:38.813Z,375.80
2022-09-12T06:46:06.202Z,22.83
2022-09-12T06:48:33.608Z,22.77
2022-09-12T06:51:00.910Z,25.07
2022-09-12T06:53:28.467Z,26.97
2022-09-12T06:56:06.998Z,29.13
2022-09-12T06:58:34.951Z,21.13
2022-09-12T07:01:03.625Z,34.77
2022-09-12T07:03:31.130Z,21.57
2022-09-12T07:05:58.476Z,23.93
2022-09-12T07:08:25.839Z,22.27
2022-09-12T07:10:52.947Z,21.97
2022-09-12T07:13:19.998Z,19.37
2022-09-12T07:15:47.124Z,21.40
2022-09-12T07:18:14.167Z,21.63
2022-09-12T07:20:42.782Z,24.00
2022-09-12T07:23:09.901Z,19.23
2022-09-12T07:25:37.661Z,20.80
2022-09-12T07:28:04.802Z,19.50
2022-09-12T07:30:31.910Z,18.40
2022-09-12T07:32:59.043Z,20.37
2022-09-12T07:35:26.182Z,20.40
2022-09-12T07:37:53.230Z,19.00
2022-09-12T07:40:20.329Z,19.97
2022-09-12T07:42:47.870Z,20.27
2022-09-12T07:45:15.514Z,23.23
2022-09-12T07:47:42.616Z,20.07
2022-09-12T07:50:09.905Z,18.57
2022-09-12T07:52:37.036Z,22.17
2022-09-12T07:55:04.298Z,18.20
2022-09-12T07:57:31.537Z,20.73
2022-09-12T07:59:58.622Z,24.13
2022-09-12T08:02:25.695Z,17.93
2022-09-12T08:04:53.635Z,19.33
2022-09-12T08:07:20.808Z,19.57
2022-09-12T08:09:48.199Z,18.27
2022-09-12T08:12:16.215Z,20.33
2022-09-12T08:14:43.270Z,22.77
2022-09-12T08:17:10.469Z,20.80
2022-09-12T08:19:38.790Z,23.00
2022-09-12T08:22:05.900Z,24.43
2022-09-12T08:24:33.547Z,24.47
2022-09-12T08:27:00.650Z,25.67
2022-09-12T08:29:27.728Z,29.97
2022-09-12T08:31:57.257Z,24.47
2022-09-12T08:34:24.999Z,23.13
2022-09-12T08:36:54.300Z,29.30
2022-09-12T08:39:22.018Z,30.47
2022-09-12T08:41:49.781Z,26.30
2022-09-12T08:44:26.913Z,28.63
2022-09-12T08:47:00.065Z,29.07
2022-09-12T08:49:33.817Z,32.07
2022-09-12T08:52:04.408Z,29.00
2022-09-12T08:54:32.006Z,25.27
2022-09-12T08:57:02.808Z,25.83
2022-09-12T08:59:36.266Z,23.47
2022-09-12T09:02:04.467Z,23.40
2022-09-12T09:04:40.707Z,25.73
2022-09-12T09:07:16.749Z,23.43
2022-09-12T09:09:55.069Z,23.17
2022-09-12T09:12:31.030Z,20.00
2022-09-12T09:15:09.910Z,21.20
2022-09-12T09:17:48.511Z,23.03
2022-09-12T09:20:24.691Z,21.93
2022-09-12T09:22:53.967Z,21.20
2022-09-12T09:25:47.225Z,27.15
2022-09-12T09:28:23.394Z,21.63
2022-09-12T09:30:50.867Z,21.30
2022-09-12T09:33:22.687Z,21.63
2022-09-12T09:36:14.756Z,19.20
2022-09-12T09:38:44.715Z,19.40
2022-09-12T09:41:18.708Z,17.20
2022-09-12T09:43:45.870Z,20.60
2022-09-12T09:46:14.230Z,15.20
2022-09-12T09:48:42.763Z,15.63
2022-09-12T09:51:10.132Z,14.32
2022-09-12T09:53:48.846Z,15.18
2022-09-12T09:56:35.540Z,14.55
2022-09-12T09:59:17.860Z,16.20
2022-09-12T10:01:49.192Z,16.83
2022-09-12T10:04:23.956Z,13.85
2022-09-12T10:06:58.130Z,14.65
2022-09-12T10:09:36.152Z,13.23
2022-09-12T10:12:21.291Z,15.32
2022-09-12T10:15:18.297Z,15.77
2022-09-12T10:17:46.526Z,12.63
2022-09-12T10:20:32.176Z,15.68
2022-09-12T10:23:00.776Z,13.50
2022-09-12T10:25:28.116Z,14.85
2022-09-12T10:27:57.277Z,15.45
2022-09-12T10:30:27.914Z,13.73
2022-09-12T10:32:57.967Z,13.35
2022-09-12T10:35:28.897Z,15.40
2022-09-12T10:37:57.759Z,14.80
2022-09-12T10:40:32.770Z,13.82
2022-09-12T10:43:00.487Z,15.13
2022-09-12T10:45:32.059Z,15.07
2022-09-12T10:48:19.436Z,14.05
2022-09-12T10:50:46.576Z,15.73
2022-09-12T10:53:23.854Z,14.45
2022-09-12T10:56:26.532Z,15.02
2022-09-12T10:58:59.812Z,14.93
2022-09-12T11:01:33.883Z,19.42
2022-09-12T11:04:10.629Z,15.38
2022-09-12T11:06:45.176Z,14.88
2022-09-12T11:09:18.189Z,14.85
2022-09-12T11:12:03.769Z,14.80
2022-09-12T11:14:30.820Z,12.40
2022-09-12T11:17:00.704Z,14.98
2022-09-12T11:19:34.019Z,13.00
2022-09-12T11:22:05.346Z,13.73
2022-09-12T11:24:39.811Z,12.82
2022-09-12T11:27:06.886Z,13.15
2022-09-12T11:29:42.430Z,10.35
2022-09-12T11:32:09.482Z,14.77
2022-09-12T11:34:42.682Z,13.02
2022-09-12T11:37:28.292Z,13.05
2022-09-12T11:39:57.004Z,10.77
2022-09-12T11:42:30.599Z,12.60
2022-09-12T11:45:02.128Z,11.27
2022-09-12T11:47:29.953Z,19.05
2022-09-12T11:49:57.304Z,12.35
2022-09-12T11:52:24.822Z,11.00
2022-09-12T11:54:53.830Z,11.63
2022-09-12T11:57:31.881Z,13.38
2022-09-12T12:00:15.720Z,12.40
2022-09-12T12:02:57.859Z,12.02
2022-09-12T12:05:28.393Z,10.65
2022-09-12T12:07:56.727Z,11.85
2022-09-12T12:10:30.920Z,14.40
2022-09-12T12:12:58.852Z,13.35
2022-09-12T12:15:26.688Z,10.55
2022-09-12T12:18:04.586Z,11.27
2022-09-12T12:20:32.059Z,13.02
2022-09-12T12:22:59.220Z,11.80
2022-09-12T12:25:51.613Z,10.98
2022-09-12T12:28:37.567Z,11.02
2022-09-12T12:31:05.617Z,12.27
2022-09-12T12:33:32.815Z,12.43
2022-09-12T12:35:59.858Z,11.02
2022-09-12T12:38:34.130Z,10.93
2022-09-12T12:41:19.223Z,10.57
2022-09-12T12:43:50.229Z,10.77
2022-09-12T12:46:18.923Z,11.18
2022-09-12T12:48:54.302Z,11.23
2022-09-12T12:51:27.099Z,13.40
2022-09-12T12:53:54.786Z,9.98
2022-09-12T12:56:35.959Z,13.45
2022-09-12T12:59:13.801Z,9.73
2022-09-12T13:01:45.651Z,13.50
2022-09-12T13:04:19.813Z,8.98
2022-09-12T13:06:57.348Z,8.57
2022-09-12T13:09:30.166Z,10.73
2022-09-12T13:12:05.357Z,8.85
2022-09-12T13:14:37.564Z,8.13
2022-09-12T13:17:08.251Z,10.40
2022-09-12T13:19:38.139Z,10.05
2022-09-12T13:22:09.542Z,10.95
2022-09-12T13:24:44.677Z,8.43
2022-09-12T13:27:17.695Z,8.45
2022-09-12T13:29:44.775Z,9.43
2022-09-12T13:32:12.077Z,8.68
2022-09-12T13:34:57.345Z,9.18
2022-09-12T13:37:53.713Z,8.63
2022-09-12T13:40:34.103Z,8.65
2022-09-12T13:43:18.304Z,8.57
2022-09-12T13:45:47.046Z,8.68
2022-09-12T13:48:16.827Z,9.20
2022-09-12T13:50:49.607Z,8.13
2022-09-12T13:53:18.206Z,10.65
2022-09-12T13:55:49.453Z,9.55
2022-09-12T13:58:18.209Z,8.48
2022-09-12T14:00:45.435Z,9.10
2022-09-12T14:03:48.242Z,9.60
2022-09-12T14:06:16.304Z,7.95
2022-09-12T14:08:44.434Z,10.05
2022-09-12T14:11:12.359Z,8.18
2022-09-12T14:13:39.703Z,8.27
2022-09-12T14:16:09.935Z,9.35
2022-09-12T14:18:38.311Z,7.78
2022-09-12T14:21:10.524Z,7.47
2022-09-12T14:23:41.481Z,7.78
2022-09-12T14:26:12.254Z,8.10
2022-09-12T14:28:49.306Z,7.28
2022-09-12T14:31:16.770Z,7.03
2022-09-12T14:33:50.044Z,10.02
2022-09-12T14:36:20.175Z,7.72
2022-09-12T14:38:50.321Z,8.85
2022-09-12T14:41:23.447Z,9.02
2022-09-12T14:43:52.986Z,7.38
2022-09-12T14:46:25.517Z,8.38
2022-09-12T14:48:54.328Z,7.65
2022-09-12T14:51:41.687Z,8.43
2022-09-12T14:54:29.164Z,8.50
2022-09-12T14:57:03.340Z,9.10
2022-09-12T14:59:32.198Z,13.50
2022-09-12T15:02:14.365Z,10.13
2022-09-12T15:04:42.455Z,7.82
2022-09-12T15:07:15.551Z,9.52
2022-09-12T15:09:47.107Z,6.72
2022-09-12T15:12:14.523Z,9.43
2022-09-12T15:14:41.578Z,9.05
2022-09-12T15:17:08.687Z,7.13
2022-09-12T15:19:35.742Z,8.65
2022-09-12T15:22:02.856Z,8.77
2022-09-12T15:24:29.947Z,6.82
2022-09-12T15:26:57.034Z,8.32
2022-09-12T15:29:24.154Z,7.75
2022-09-12T15:31:51.653Z,8.55
2022-09-12T15:34:19.557Z,8.52
2022-09-12T15:36:46.628Z,8.90
2022-09-12T15:39:13.768Z,8.65
2022-09-12T15:41:41.008Z,8.18
2022-09-12T15:44:08.795Z,8.25
2022-09-12T15:46:36.027Z,7.43
2022-09-12T15:49:03.137Z,8.93
2022-09-12T15:51:30.219Z,6.60
2022-09-12T15:53:57.339Z,10.68
2022-09-12T15:56:24.406Z,8.70
2022-09-12T15:58:59.998Z,11.00
2022-09-12T16:01:28.210Z,9.40
2022-09-12T16:03:55.465Z,11.07
2022-09-12T16:06:22.779Z,10.73
2022-09-12T16:08:49.960Z,8.18
2022-09-12T16:11:17.014Z,9.43
2022-09-12T16:13:44.066Z,8.75
2022-09-12T16:16:11.429Z,11.57
2022-09-12T16:18:40.611Z,9.18
2022-09-12T16:21:11.467Z,9.82
2022-09-12T16:23:43.141Z,9.05
2022-09-12T16:26:10.239Z,8.65
2022-09-12T16:28:37.481Z,9.90
2022-09-12T16:31:05.925Z,9.30
2022-09-12T16:33:33.283Z,9.98
2022-09-12T16:36:04.622Z,8.68
2022-09-12T16:38:32.315Z,11.27
2022-09-12T16:41:03.301Z,9.18
2022-09-12T16:43:30.738Z,8.77
2022-09-12T16:46:09.225Z,8.43
2022-09-12T16:48:36.833Z,8.70
2022-09-12T16:51:06.742Z,11.13
2022-09-12T16:53:34.814Z,12.75
2022-09-12T16:56:01.977Z,11.35
2022-09-12T16:58:32.352Z,8.80
2022-09-12T17:01:07.094Z,9.57
2022-09-12T17:03:34.305Z,10.00
2022-09-12T17:06:02.284Z,10.10
2022-09-12T17:08:29.910Z,9.65
2022-09-12T17:11:03.630Z,9.68
2022-09-12T17:13:52.932Z,9.07
2022-09-12T17:16:19.253Z,10.50
2022-09-12T17:18:46.828Z,8.50
2022-09-12T17:21:13.997Z,10.13
2022-09-12T17:23:41.728Z,10.27
2022-09-12T17:26:10.133Z,8.93
2022-09-12T17:28:38.242Z,12.57
2022-09-12T17:31:06.881Z,10.87
2022-09-12T17:33:34.178Z,11.50
2022-09-12T17:36:02.499Z,10.47
2022-09-12T17:38:31.941Z,9.90
2022-09-12T17:41:05.198Z,11.60
2022-09-12T17:43:33.281Z,10.93
2022-09-12T17:46:00.745Z,10.73
2022-09-12T17:48:27.971Z,13.37
2022-09-12T17:50:55.077Z,11.27
2022-09-12T17:53:22.157Z,9.77
2022-09-12T17:55:52.605Z,17.17
2022-09-12T17:58:21.373Z,16.10
2022-09-12T18:01:06.970Z,16.43
2022-09-12T18:03:35.210Z,15.60
2022-09-12T18:06:02.281Z,13.50
2022-09-12T18:08:29.423Z,11.63
2022-09-12T18:11:03.828Z,11.33
2022-09-12T18:13:32.249Z,10.93
2022-09-12T18:16:07.273Z,11.10
2022-09-12T18:18:35.235Z,11.80
2022-09-12T18:21:03.131Z,14.43
2022-09-12T18:23:30.559Z,12.83
2022-09-12T18:25:58.472Z,10.70
2022-09-12T18:28:25.849Z,11.77
2022-09-12T18:30:53.008Z,11.27
2022-09-12T18:33:23.863Z,13.20
2022-09-12T18:35:51.341Z,12.93
2022-09-12T18:38:18.425Z,14.43
2022-09-12T18:40:45.593Z,15.10
2022-09-12T18:43:14.266Z,15.00
2022-09-12T18:45:41.577Z,14.60
2022-09-12T18:48:09.405Z,14.07
2022-09-12T18:50:36.482Z,19.43
2022-09-12T18:53:03.592Z,17.33
2022-09-12T18:55:31.798Z,16.00
2022-09-12T18:57:58.900Z,17.20
2022-09-12T19:00:26.033Z,15.50
2022-09-12T19:02:53.415Z,17.73
2022-09-12T19:05:20.514Z,22.63
2022-09-12T19:07:47.920Z,17.03
2022-09-12T19:10:15.024Z,15.47
2022-09-12T19:12:42.129Z,13.30
2022-09-12T19:15:09.811Z,14.43
2022-09-12T19:17:36.940Z,14.97
2022-09-12T19:20:05.727Z,17.73
2022-09-12T19:22:33.026Z,16.43
2022-09-12T19:25:00.106Z,18.47
2022-09-12T19:27:27.223Z,82.13
2022-09-12T19:29:54.445Z,112.47
2022-09-12T19:32:22.579Z,96.07
2022-09-12T19:34:49.677Z,54.67
2022-09-12T19:37:16.795Z,48.23
2022-09-12T19:39:45.890Z,50.67
2022-09-12T19:42:13.189Z,46.83
2022-09-12T19:44:40.286Z,26.13
2022-09-12T19:47:07.411Z,29.20
2022-09-12T19:49:34.525Z,25.47
2022-09-12T19:52:01.665Z,21.17
2022-09-12T19:54:28.744Z,22.87
2022-09-12T19:56:55.834Z,32.97
2022-09-12T19:59:22.913Z,22.87
2022-09-12T20:01:50.068Z,18.13
2022-09-12T20:04:17.246Z,16.20
2022-09-12T20:06:44.337Z,20.77
2022-09-12T20:09:11.776Z,18.53
2022-09-12T20:11:38.883Z,25.67
2022-09-12T20:14:06.003Z,39.23
2022-09-12T20:16:33.438Z,59.80
2022-09-12T20:19:02.367Z,68.87
2022-09-12T20:21:35.783Z,55.83
2022-09-12T20:24:11.452Z,34.47
2022-09-12T20:26:38.547Z,34.73
2022-09-12T20:29:06.345Z,33.60
2022-09-12T20:31:33.848Z,27.10
2022-09-12T20:34:01.124Z,21.63
2022-09-12T20:36:28.603Z,20.70
2022-09-12T20:38:56.847Z,17.67
2022-09-12T20:41:24.820Z,20.20
2022-09-12T20:43:52.651Z,21.17
2022-09-12T20:46:22.168Z,20.70
2022-09-12T20:48:49.682Z,20.40
2022-09-12T20:51:16.813Z,17.10
2022-09-12T20:53:43.999Z,18.00
2022-09-12T20:56:11.123Z,19.40
2022-09-12T20:58:43.075Z,17.30
2022-09-12T21:01:12.309Z,20.47
2022-09-12T21:03:39.703Z,17.20
2022-09-12T21:06:07.507Z,17.27
2022-09-12T21:08:34.850Z,18.30
2022-09-12T21:11:01.941Z,16.50
2022-09-12T21:13:29.388Z,14.90
2022-09-12T21:16:15.730Z,16.80
2022-09-12T21:18:43.291Z,16.00
2022-09-12T21:21:11.101Z,15.97
2022-09-12T21:23:38.454Z,19.03
2022-09-12T21:26:05.678Z,18.13
2022-09-12T21:28:33.013Z,16.13
2022-09-12T21:31:00.265Z,16.03
2022-09-12T21:33:28.130Z,16.20
2022-09-12T21:35:57.907Z,16.67
2022-09-12T21:38:24.980Z,19.03
2022-09-12T21:40:52.069Z,18.60
2022-09-12T21:43:19.142Z,19.03
2022-09-12T21:45:46.201Z,18.87
2022-09-12T21:48:13.374Z,17.83
2022-09-12T21:50:40.441Z,18.27
2022-09-12T21:53:07.604Z,17.93
2022-09-12T21:55:34.708Z,20.23
2022-09-12T21:58:01.773Z,20.30
2022-09-12T22:00:28.890Z,19.53
2022-09-12T22:02:56.215Z,19.80
2022-09-12T22:05:24.636Z,21.33
2022-09-12T22:07:52.620Z,20.83
2022-09-12T22:10:19.745Z,19.23
2022-09-12T22:12:46.798Z,21.47
2022-09-12T22:15:38.981Z,19.43
2022-09-12T22:18:01.235Z,21.53
2022-09-12T22:20:28.530Z,21.13
2022-09-12T22:23:15.925Z,22.50
2022-09-12T22:25:43.050Z,21.43
2022-09-12T22:28:10.484Z,22.80
2022-09-12T22:30:38.574Z,23.37
2022-09-12T22:33:05.682Z,27.50
2022-09-12T22:35:32.887Z,26.40
2022-09-12T22:38:00.024Z,24.93
2022-09-12T22:40:27.092Z,25.43
2022-09-12T22:42:54.320Z,30.17
2022-09-12T22:45:21.366Z,27.00
2022-09-12T22:47:48.436Z,31.83
2022-09-12T22:50:15.649Z,27.23
2022-09-12T22:52:42.804Z,30.80
2022-09-12T22:55:10.041Z,25.43
2022-09-12T22:57:37.770Z,24.07
2022-09-12T23:00:08.541Z,25.00
2022-09-12T23:02:35.641Z,27.73
2022-09-12T23:05:02.807Z,25.17
2022-09-12T23:07:29.943Z,28.43
2022-09-12T23:09:57.021Z,22.53
2022-09-12T23:12:24.170Z,25.57
2022-09-12T23:14:51.288Z,29.07
2022-09-12T23:17:18.482Z,24.47
2022-09-12T23:19:45.521Z,24.73
2022-09-12T23:22:12.600Z,25.90
2022-09-12T23:24:39.708Z,22.80
2022-09-12T23:27:06.790Z,25.90
2022-09-12T23:29:35.365Z,24.63
2022-09-12T23:32:03.326Z,26.70
2022-09-12T23:34:30.908Z,26.07
2022-09-12T23:36:58.022Z,23.37
2022-09-12T23:39:25.138Z,25.43
2022-09-12T23:41:52.238Z,29.07
2022-09-12T23:44:19.345Z,24.73
2022-09-12T23:46:46.473Z,24.77
2022-09-12T23:49:13.576Z,26.73
2022-09-12T23:51:40.683Z,25.07
2022-09-12T23:54:07.809Z,27.30
2022-09-12T23:56:34.872Z,26.93
2022-09-12T23:59:01.987Z,25.00
